Etihad Airways Virtual Airport Information Service

Tokyo Narita International Airport

ICAO: RJAA Country: Japan
Latitude: 35.7647 Longitude: 140.386
Latest Arrival : ETD878 (OMAA-RJAA) Latest Departure : ETD871 (RJAA-OMAA)


WX CaptureLIVE
Data provided by noaa.gov | Recorded at 17:11:00

METAR : RJAA 081630Z 19003KT 160V220 9999 FEW030 08/07 Q1011 NOSIG

TAF : RJAA 081105Z 0812/0918 22006KT 9999 FEW030 BECMG 0815/0817 32006KT BECMG 0903/0906 12012KT BECMG 0912/0915 02006KT


Runway Data for RJAA
Data provided by openaviationdata.com

Runway ID Mag Var Hdg Length Elevation Surface ILS Freq ILS Id ILS Slope

Tokyo Narita International Airport, Japan
Use only for reference purposes